Time;durP1;ratioP1;P1;durP2;ratioP2;P2;SDS_P1;SDS_P2;PMS_P1;PMS_P2;Temp;Humidity;BMP_temperature;BMP_pressure;BME280_temperature;BME280_humidity;BME280_pressure;Samples;Min_cycle;Max_cycle;Signal;HPM_P1;HPM_P2
2022/01/02 00:02:08;;;;;;;1.15;0.70;;;22.50;56.30;;;;;;5087615;28;20055;-71
2022/01/02 00:05:07;;;;;;;1.23;0.90;;;22.40;56.10;;;;;;5076672;28;20043;-71
2022/01/02 00:07:57;;;;;;;0.95;0.73;;;22.50;56.10;;;;;;5076898;28;20048;-71
2022/01/02 00:10:54;;;;;;;1.40;0.75;;;22.50;56.10;;;;;;5077980;28;20047;-71
2022/01/02 00:13:46;;;;;;;0.75;0.75;;;22.60;55.90;;;;;;5081808;28;20039;-71
2022/01/02 00:16:33;;;;;;;2.33;0.65;;;22.50;55.90;;;;;;5077666;28;20031;-71
2022/01/02 00:19:28;;;;;;;0.88;0.73;;;22.60;56.20;;;;;;5076817;28;20104;-71
2022/01/02 00:22:15;;;;;;;1.80;0.68;;;22.70;56.10;;;;;;5076265;28;20077;-70
2022/01/02 00:25:08;;;;;;;0.77;0.68;;;22.60;55.90;;;;;;5080800;28;20048;-71
2022/01/02 00:27:54;;;;;;;2.85;0.60;;;22.60;56.10;;;;;;5079159;28;20044;-71
2022/01/02 00:30:41;;;;;;;1.45;0.70;;;22.50;56.10;;;;;;5077233;28;20052;-71
2022/01/02 00:33:26;;;;;;;1.05;0.80;;;22.50;56.10;;;;;;5089689;28;20099;-71
2022/01/02 00:36:10;;;;;;;1.27;0.80;;;22.40;56.20;;;;;;5096770;28;20051;-71
2022/01/02 00:38:55;;;;;;;0.90;0.68;;;22.40;56.10;;;;;;5096358;28;20039;-71
2022/01/02 00:41:55;;;;;;;0.80;0.80;;;22.30;56.20;;;;;;5091465;28;20048;-71
2022/01/02 00:44:45;;;;;;;1.40;0.85;;;22.20;56.10;;;;;;5095340;28;20043;-71
2022/01/02 00:47:36;;;;;;;0.80;0.80;;;22.20;56.00;;;;;;5080929;28;20040;-71
2022/01/02 00:50:30;;;;;;;0.77;0.70;;;22.10;56.20;;;;;;5080607;28;20178;-71
2022/01/02 00:53:18;;;;;;;2.45;0.90;;;22.10;56.30;;;;;;5079677;28;20051;-72
2022/01/02 00:56:05;;;;;;;0.88;0.85;;;22.10;56.40;;;;;;5083391;28;20112;-71
2022/01/02 00:58:51;;;;;;;0.70;0.68;;;22.20;56.30;;;;;;5082985;28;20072;-71
2022/01/02 01:01:38;;;;;;;4.13;1.02;;;22.00;56.40;;;;;;5094978;28;20093;-71
2022/01/02 01:04:27;;;;;;;1.02;0.82;;;22.10;56.40;;;;;;5098844;28;20193;-70
2022/01/02 01:07:13;;;;;;;0.63;0.63;;;21.90;56.40;;;;;;5095657;28;20034;-71
2022/01/02 01:09:58;;;;;;;1.45;1.30;;;22.00;56.40;;;;;;5098436;28;20093;-71
2022/01/02 01:12:45;;;;;;;1.23;0.60;;;21.90;56.20;;;;;;5090228;28;20123;-71
2022/01/02 01:15:32;;;;;;;1.10;1.00;;;22.10;56.30;;;;;;5087860;28;20071;-71
2022/01/02 01:18:17;;;;;;;2.60;1.13;;;21.90;56.10;;;;;;5089445;28;20035;-70
2022/01/02 01:21:02;;;;;;;2.17;1.42;;;22.00;56.20;;;;;;5099513;28;20066;-71
2022/01/02 01:23:47;;;;;;;2.20;0.88;;;21.90;56.20;;;;;;5100208;28;20047;-71
2022/01/02 01:26:32;;;;;;;1.02;0.75;;;22.00;55.70;;;;;;5094959;28;20099;-71
2022/01/02 01:29:17;;;;;;;0.70;0.70;;;22.00;56.00;;;;;;5079822;28;20040;-71
2022/01/02 01:32:06;;;;;;;1.13;0.93;;;22.00;55.90;;;;;;5080776;28;20102;-71
2022/01/02 01:34:51;;;;;;;1.90;0.90;;;22.00;55.90;;;;;;5091870;28;20107;-71
2022/01/02 01:37:36;;;;;;;2.92;1.02;;;22.10;55.90;;;;;;5099449;28;20035;-71
2022/01/02 01:40:22;;;;;;;1.50;1.17;;;22.10;55.80;;;;;;5098923;28;20051;-71
2022/01/02 01:43:09;;;;;;;1.05;0.93;;;22.10;55.80;;;;;;5083077;28;20048;-71
2022/01/02 01:45:58;;;;;;;1.15;0.73;;;22.00;54.40;;;;;;5099228;28;20047;-71
2022/01/02 01:48:53;;;;;;;1.92;0.80;;;21.90;54.90;;;;;;5091231;28;20059;-71
2022/01/02 01:51:37;;;;;;;0.60;0.60;;;22.00;54.40;;;;;;5079418;28;20050;-71
2022/01/02 01:54:23;;;;;;;1.20;1.10;;;22.10;55.20;;;;;;5097376;28;20056;-71
2022/01/02 01:57:08;;;;;;;3.40;0.73;;;22.10;55.40;;;;;;5087521;28;20117;-71
2022/01/02 01:59:55;;;;;;;1.25;0.77;;;22.00;55.10;;;;;;5096033;28;20114;-71
2022/01/02 02:02:41;;;;;;;0.93;0.73;;;22.00;55.60;;;;;;5079777;28;20036;-71
2022/01/02 02:05:26;;;;;;;1.13;0.85;;;21.90;54.80;;;;;;5092283;28;20169;-70
2022/01/02 02:08:11;;;;;;;2.38;0.80;;;22.00;55.80;;;;;;5078009;28;20032;-71
2022/01/02 02:10:58;;;;;;;1.10;0.90;;;22.00;56.20;;;;;;5093189;28;20101;-70
2022/01/02 02:13:44;;;;;;;2.78;0.90;;;22.00;56.30;;;;;;5088580;28;20575;-71
2022/01/02 02:16:29;;;;;;;2.67;1.27;;;21.80;56.40;;;;;;5080100;28;20040;-70
2022/01/02 02:19:15;;;;;;;1.10;1.00;;;22.00;56.60;;;;;;5091088;28;20050;-71
2022/01/02 02:22:03;;;;;;;1.10;1.00;;;22.00;56.50;;;;;;5088058;28;20112;-70
2022/01/02 02:24:48;;;;;;;0.93;0.80;;;22.00;56.50;;;;;;5078242;28;20042;-71
2022/01/02 02:27:33;;;;;;;1.33;0.82;;;22.00;56.30;;;;;;5104351;28;20090;-71
2022/01/02 02:30:19;;;;;;;1.45;1.23;;;22.00;56.10;;;;;;5097238;28;20027;-70
2022/01/02 02:33:06;;;;;;;1.13;0.90;;;22.10;56.30;;;;;;5111482;28;20039;-71
2022/01/02 02:35:51;;;;;;;1.48;1.33;;;22.10;56.30;;;;;;5077118;28;20048;-71
2022/01/02 02:38:39;;;;;;;0.73;0.73;;;22.00;56.20;;;;;;5077859;28;20043;-70
2022/01/02 02:41:24;;;;;;;2.60;1.30;;;22.10;56.20;;;;;;5078501;28;20035;-71
2022/01/02 02:44:22;;;;;;;1.23;0.90;;;22.10;56.20;;;;;;5083078;28;20754;-70
2022/01/02 02:50:10;;;;;;;;;;;22.10;56.10;;;;;;5089584;28;20140;-71
2022/01/02 02:52:55;;;;;;;5.22;1.02;;;22.00;56.00;;;;;;5095589;28;19922;-71
2022/01/02 02:55:47;;;;;;;1.10;1.00;;;22.10;55.90;;;;;;5096534;28;20039;-70
2022/01/02 03:01:22;;;;;;;0.75;0.75;;;21.90;54.30;;;;;;5081153;28;20070;-71
2022/01/02 03:04:08;;;;;;;0.68;0.68;;;22.00;56.40;;;;;;5092825;28;20039;-71
2022/01/02 03:06:53;;;;;;;1.10;0.70;;;21.90;56.50;;;;;;5096683;28;20055;-70
2022/01/02 03:09:41;;;;;;;0.82;0.80;;;21.90;56.40;;;;;;5095963;28;20035;-71
2022/01/02 03:12:28;;;;;;;0.75;0.75;;;21.90;55.50;;;;;;5091011;28;20058;-71
2022/01/02 03:15:15;;;;;;;0.80;0.80;;;21.80;56.00;;;;;;5095474;28;20031;-72
2022/01/02 03:18:00;;;;;;;0.80;0.80;;;21.90;55.70;;;;;;5082396;28;20083;-70
2022/01/02 03:20:45;;;;;;;1.48;0.68;;;21.70;56.50;;;;;;5081180;28;20618;-71
2022/01/02 03:23:32;;;;;;;0.70;0.70;;;21.70;57.20;;;;;;5095234;28;20031;-71
2022/01/02 03:26:17;;;;;;;0.85;0.77;;;21.70;57.50;;;;;;5096679;28;20499;-71
2022/01/02 03:29:03;;;;;;;0.93;0.70;;;21.60;57.40;;;;;;5089576;28;20042;-70
2022/01/02 03:31:47;;;;;;;0.80;0.70;;;21.70;56.50;;;;;;5085167;28;20097;-71
2022/01/02 03:34:32;;;;;;;0.80;0.80;;;21.70;55.60;;;;;;5091960;28;20075;-71
2022/01/02 03:37:17;;;;;;;1.13;0.60;;;21.60;56.50;;;;;;5077560;28;20043;-71
2022/01/02 03:40:07;;;;;;;0.70;0.70;;;21.70;57.40;;;;;;5076836;28;20710;-70
2022/01/02 03:42:52;;;;;;;1.08;0.60;;;21.70;56.00;;;;;;5087475;28;20075;-71
2022/01/02 03:45:37;;;;;;;0.68;0.63;;;21.60;56.60;;;;;;5080120;28;20051;-71
2022/01/02 03:48:23;;;;;;;0.50;0.50;;;21.60;57.80;;;;;;5078583;28;20111;-70
2022/01/02 03:51:08;;;;;;;0.60;0.60;;;21.60;57.90;;;;;;5077110;28;20040;-70
2022/01/02 03:53:52;;;;;;;1.20;0.70;;;21.60;57.60;;;;;;5076855;28;20028;-71
2022/01/02 03:56:37;;;;;;;1.02;0.60;;;21.80;56.10;;;;;;5078090;28;20040;-71
2022/01/02 03:59:22;;;;;;;1.58;1.08;;;21.70;57.00;;;;;;5081114;28;20123;-71
2022/01/02 04:02:07;;;;;;;1.42;0.60;;;21.80;57.20;;;;;;5077232;28;20043;-70
2022/01/02 04:04:53;;;;;;;0.50;0.50;;;21.80;55.60;;;;;;5085221;28;20107;-71
2022/01/02 04:07:38;;;;;;;0.40;0.40;;;21.80;56.80;;;;;;5096491;28;20039;-71
2022/01/02 04:10:23;;;;;;;0.70;0.70;;;21.80;56.10;;;;;;5095296;28;20035;-71
2022/01/02 04:13:09;;;;;;;1.45;0.60;;;21.70;54.00;;;;;;5094324;28;20038;-71
2022/01/02 04:15:53;;;;;;;0.50;0.50;;;21.60;57.20;;;;;;5076796;28;20055;-70
2022/01/02 04:18:39;;;;;;;0.60;0.60;;;21.70;57.20;;;;;;5092681;28;20043;-70
2022/01/02 04:21:24;;;;;;;0.88;0.77;;;21.80;57.10;;;;;;5075741;28;20047;-71
2022/01/02 04:24:09;;;;;;;0.50;0.50;;;21.80;56.70;;;;;;5090236;28;20059;-71
2022/01/02 04:26:54;;;;;;;1.15;0.88;;;21.70;57.20;;;;;;5090077;28;20056;-70
2022/01/02 04:29:39;;;;;;;0.90;0.73;;;21.70;56.40;;;;;;5078169;28;20054;-71
2022/01/02 04:32:24;;;;;;;0.60;0.60;;;21.70;57.50;;;;;;5093660;28;20055;-71
2022/01/02 04:35:09;;;;;;;0.82;0.60;;;21.70;57.80;;;;;;5084276;28;20099;-71
2022/01/02 04:37:55;;;;;;;1.25;1.08;;;21.70;57.80;;;;;;5090232;28;20047;-71
2022/01/02 04:40:40;;;;;;;0.47;0.47;;;21.60;57.70;;;;;;5076220;28;20059;-71
2022/01/02 04:43:26;;;;;;;0.70;0.63;;;21.60;57.60;;;;;;5090551;28;20035;-71
2022/01/02 04:46:11;;;;;;;0.65;0.65;;;21.70;57.90;;;;;;5084544;28;20067;-71
2022/01/02 04:48:56;;;;;;;0.80;0.70;;;21.70;58.30;;;;;;5095364;28;20030;-71
2022/01/02 04:51:42;;;;;;;0.85;0.60;;;21.70;58.10;;;;;;5082361;28;20056;-71
2022/01/02 04:54:27;;;;;;;0.75;0.68;;;21.60;58.10;;;;;;5075263;28;20066;-71
2022/01/02 04:57:11;;;;;;;2.42;0.77;;;21.50;58.00;;;;;;5092108;28;20040;-70
2022/01/02 04:59:56;;;;;;;1.05;0.80;;;21.60;58.10;;;;;;5080981;28;20035;-71
2022/01/02 05:02:41;;;;;;;2.47;0.70;;;21.50;58.10;;;;;;5090082;28;20130;-71
2022/01/02 05:05:27;;;;;;;1.17;0.90;;;21.40;58.20;;;;;;5077422;28;20044;-71
2022/01/02 05:08:12;;;;;;;2.22;1.20;;;21.40;58.30;;;;;;5090371;28;20037;-71
2022/01/02 05:10:57;;;;;;;3.88;1.40;;;21.40;58.20;;;;;;5075147;28;20040;-70
2022/01/02 05:13:44;;;;;;;1.17;1.08;;;21.40;58.10;;;;;;5078849;28;20063;-71
2022/01/02 05:16:30;;;;;;;2.58;1.83;;;21.50;58.10;;;;;;5075000;28;20044;-70
2022/01/02 05:19:14;;;;;;;1.67;1.58;;;21.50;58.10;;;;;;5075762;28;20101;-71
2022/01/02 05:21:59;;;;;;;3.50;1.30;;;21.50;58.00;;;;;;5089198;28;20055;-71
2022/01/02 05:24:45;;;;;;;1.05;0.80;;;21.50;58.10;;;;;;5075027;28;20040;-71
2022/01/02 05:27:30;;;;;;;0.77;0.77;;;21.50;58.20;;;;;;5091724;28;20103;-71
2022/01/02 05:30:15;;;;;;;1.35;0.75;;;21.40;58.20;;;;;;5095422;28;20093;-71
2022/01/02 05:33:01;;;;;;;0.80;0.63;;;21.50;58.10;;;;;;5096497;28;20059;-72
2022/01/02 05:35:46;;;;;;;2.85;0.75;;;21.40;58.10;;;;;;5098661;28;20108;-71
2022/01/02 05:38:31;;;;;;;0.75;0.75;;;21.40;58.20;;;;;;5098782;28;20034;-71
2022/01/02 05:41:16;;;;;;;0.60;0.60;;;21.40;58.10;;;;;;5096353;28;20039;-71
2022/01/02 05:44:01;;;;;;;2.17;1.10;;;21.40;58.30;;;;;;5096115;28;20036;-70
2022/01/02 05:46:47;;;;;;;2.08;1.15;;;21.30;58.20;;;;;;5082181;28;20096;-71
2022/01/02 05:49:32;;;;;;;1.90;1.17;;;21.30;58.40;;;;;;5092628;28;20045;-71
2022/01/02 05:52:17;;;;;;;2.22;1.42;;;21.20;58.50;;;;;;5092566;28;20048;-71
2022/01/02 05:55:02;;;;;;;1.40;1.20;;;21.10;58.80;;;;;;5092442;28;20059;-71
2022/01/02 05:57:47;;;;;;;1.25;0.98;;;21.20;59.10;;;;;;5095913;28;20032;-71
2022/01/02 06:00:33;;;;;;;1.45;1.17;;;21.00;59.30;;;;;;5112166;28;20038;-71
2022/01/02 06:03:21;;;;;;;2.80;1.40;;;21.00;59.50;;;;;;5078089;28;20060;-70
2022/01/02 06:06:05;;;;;;;1.60;1.42;;;21.00;59.80;;;;;;5078039;28;20048;-70
2022/01/02 06:08:51;;;;;;;3.78;1.60;;;20.90;59.90;;;;;;5078034;28;20058;-70
2022/01/02 06:11:36;;;;;;;2.40;1.80;;;20.90;59.90;;;;;;5079653;28;20040;-71
2022/01/02 06:14:21;;;;;;;2.03;1.40;;;20.90;59.70;;;;;;5101582;28;20104;-71
2022/01/02 06:17:06;;;;;;;1.88;1.45;;;20.90;59.30;;;;;;5097602;28;20044;-71
2022/01/02 06:19:51;;;;;;;1.88;1.27;;;20.90;59.40;;;;;;5098251;28;20043;-71
2022/01/02 06:22:35;;;;;;;4.72;1.35;;;20.90;59.20;;;;;;5094821;28;20039;-71
2022/01/02 06:25:22;;;;;;;1.48;1.05;;;21.00;59.10;;;;;;5093556;28;20048;-71
2022/01/02 06:28:06;;;;;;;1.80;1.05;;;21.00;59.00;;;;;;5089920;28;20040;-70
2022/01/02 06:30:51;;;;;;;3.42;1.85;;;21.10;59.20;;;;;;5088643;28;20040;-70
2022/01/02 06:33:36;;;;;;;0.50;0.50;;;21.10;49.50;;;;;;5095072;28;20139;-71
2022/01/02 06:36:21;;;;;;;1.10;0.93;;;21.40;48.70;;;;;;5096550;28;20043;-71
2022/01/02 06:39:06;;;;;;;1.98;0.75;;;21.60;48.80;;;;;;5087162;28;20092;-70
2022/01/02 06:41:53;;;;;;;1.20;1.10;;;21.70;47.10;;;;;;5090938;28;20103;-70
2022/01/02 06:44:39;;;;;;;4.15;2.55;;;21.80;46.70;;;;;;5094934;28;20039;-70
2022/01/02 06:47:24;;;;;;;2.30;1.55;;;21.90;46.60;;;;;;5095839;28;20043;-70
2022/01/02 06:50:11;;;;;;;2.35;1.65;;;22.00;47.90;;;;;;5097940;28;20036;-71
2022/01/02 06:52:56;;;;;;;2.20;1.65;;;22.10;46.40;;;;;;5095141;28;20031;-70
2022/01/02 06:55:41;;;;;;;2.47;2.10;;;22.20;47.00;;;;;;5095274;28;20067;-70
2022/01/02 06:58:26;;;;;;;2.53;2.17;;;22.00;46.30;;;;;;5096908;28;20063;-70
2022/01/02 07:01:11;;;;;;;2.58;1.83;;;22.00;46.40;;;;;;5097151;28;20039;-71
2022/01/02 07:03:57;;;;;;;2.55;1.90;;;22.20;54.80;;;;;;5092642;28;20059;-71
2022/01/02 07:06:41;;;;;;;2.80;2.15;;;22.30;55.00;;;;;;5103951;28;20066;-70
2022/01/02 07:09:29;;;;;;;4.03;1.95;;;22.20;57.50;;;;;;5092353;28;20307;-70
2022/01/02 07:12:14;;;;;;;3.65;1.70;;;22.10;59.40;;;;;;5078334;28;20095;-72
2022/01/02 07:14:59;;;;;;;3.17;2.03;;;22.00;60.90;;;;;;5077318;28;20116;-72
2022/01/02 07:17:44;;;;;;;3.60;2.10;;;21.80;60.70;;;;;;5077168;28;20115;-72
2022/01/02 07:20:29;;;;;;;2.80;1.98;;;21.80;61.10;;;;;;5081274;28;20051;-71
2022/01/02 07:23:14;;;;;;;2.55;1.65;;;21.90;61.20;;;;;;5107404;28;20062;-71
2022/01/02 07:25:59;;;;;;;3.55;2.15;;;21.90;61.10;;;;;;5088572;28;20051;-71
2022/01/02 07:28:44;;;;;;;2.40;1.90;;;21.70;61.50;;;;;;5096843;28;20051;-71
2022/01/02 07:31:29;;;;;;;2.58;1.85;;;21.90;61.20;;;;;;5085762;28;20035;-72
2022/01/02 07:34:13;;;;;;;3.17;2.33;;;21.80;61.80;;;;;;5095049;28;20059;-73
2022/01/02 07:36:58;;;;;;;5.45;2.50;;;21.70;61.60;;;;;;5095031;28;20093;-71
2022/01/02 07:39:43;;;;;;;4.70;2.47;;;21.70;63.20;;;;;;5096515;28;20066;-72
2022/01/02 07:42:28;;;;;;;3.13;1.90;;;21.60;62.70;;;;;;5095241;28;20040;-71
2022/01/02 07:45:20;;;;;;;2.70;1.70;;;21.70;63.00;;;;;;5095699;28;20047;-70
2022/01/02 07:48:05;;;;;;;2.75;1.63;;;21.70;62.40;;;;;;5095887;28;20087;-71
2022/01/02 07:50:50;;;;;;;2.45;1.90;;;21.80;62.20;;;;;;5084400;28;20051;-70
2022/01/02 07:53:35;;;;;;;4.55;1.90;;;21.90;61.70;;;;;;5084905;28;20039;-70
2022/01/02 07:56:19;;;;;;;2.83;1.70;;;21.80;60.30;;;;;;5088947;28;20039;-71
2022/01/02 07:59:04;;;;;;;2.95;1.50;;;21.80;61.50;;;;;;5090328;28;20093;-74
2022/01/02 08:01:49;;;;;;;2.22;1.55;;;21.80;61.50;;;;;;5083457;28;20464;-73
2022/01/02 08:04:34;;;;;;;2.15;1.70;;;22.10;60.50;;;;;;5090695;28;20059;-72
2022/01/02 08:07:19;;;;;;;2.20;1.40;;;22.30;58.40;;;;;;5094249;28;20111;-73
2022/01/02 08:10:04;;;;;;;1.75;1.40;;;22.40;55.60;;;;;;5092640;28;20035;-72
2022/01/02 08:12:49;;;;;;;2.33;1.85;;;22.50;53.20;;;;;;5094307;28;20044;-72
2022/01/02 08:15:34;;;;;;;4.72;2.95;;;22.60;51.20;;;;;;5089047;28;20044;-72
2022/01/02 08:18:18;;;;;;;1.25;1.15;;;22.70;49.80;;;;;;5092822;28;20067;-73
2022/01/02 08:21:03;;;;;;;1.65;1.23;;;22.80;58.00;;;;;;5089053;28;20055;-73
2022/01/02 08:23:48;;;;;;;3.60;1.00;;;22.70;52.50;;;;;;5089363;28;20079;-72
2022/01/02 08:26:33;;;;;;;0.60;0.60;;;22.90;50.50;;;;;;5094349;28;20105;-72
2022/01/02 08:29:18;;;;;;;0.73;0.73;;;22.90;47.60;;;;;;5089650;28;20035;-72
2022/01/02 08:32:03;;;;;;;0.25;0.25;;;22.70;45.70;;;;;;5095653;28;20058;-73
2022/01/02 08:34:47;;;;;;;0.98;0.90;;;22.80;44.20;;;;;;5091648;28;20086;-69
2022/01/02 08:37:32;;;;;;;3.05;1.10;;;22.80;43.30;;;;;;5094964;28;20066;-69
2022/01/02 08:40:17;;;;;;;0.30;0.30;;;22.80;43.00;;;;;;5094773;28;20047;-70
2022/01/02 08:43:02;;;;;;;0.40;0.40;;;22.80;43.20;;;;;;5094602;28;20035;-69
2022/01/02 08:45:46;;;;;;;0.93;0.93;;;22.80;43.60;;;;;;5095103;28;20101;-70
2022/01/02 08:48:31;;;;;;;0.32;0.32;;;22.90;43.90;;;;;;5095233;28;20103;-69
2022/01/02 08:51:16;;;;;;;1.00;0.93;;;22.70;45.40;;;;;;5087041;28;20040;-69
2022/01/02 08:54:03;;;;;;;0.82;0.75;;;22.80;44.80;;;;;;5088330;28;20093;-68
2022/01/02 08:56:48;;;;;;;2.78;1.40;;;22.70;44.90;;;;;;5093316;28;20086;-70
2022/01/02 08:59:32;;;;;;;1.98;1.60;;;22.80;39.50;;;;;;5094292;28;20115;-70
2022/01/02 09:02:17;;;;;;;2.40;1.30;;;22.60;40.20;;;;;;5094648;28;20188;-70
2022/01/02 09:05:03;;;;;;;1.15;1.10;;;22.40;42.30;;;;;;5095268;28;20048;-70
2022/01/02 09:07:47;;;;;;;1.95;1.35;;;22.20;41.70;;;;;;5094959;28;20040;-70
2022/01/02 09:10:32;;;;;;;1.55;1.30;;;22.20;45.80;;;;;;5099714;28;20054;-70
2022/01/02 09:13:18;;;;;;;1.15;1.05;;;22.20;42.90;;;;;;5099272;28;20099;-70
2022/01/02 09:16:03;;;;;;;1.35;1.10;;;22.00;45.80;;;;;;5099477;28;20030;-70
2022/01/02 09:18:48;;;;;;;1.98;1.58;;;22.00;43.40;;;;;;5099466;28;20071;-70
2022/01/02 09:21:32;;;;;;;1.42;1.33;;;22.00;44.50;;;;;;5098951;28;20058;-71
2022/01/02 09:24:17;;;;;;;1.67;1.58;;;21.90;45.50;;;;;;5093992;28;20051;-71
2022/01/02 09:27:02;;;;;;;2.85;1.48;;;21.90;47.00;;;;;;5097370;28;20035;-71
2022/01/02 09:29:47;;;;;;;4.90;1.65;;;21.90;47.60;;;;;;5096716;28;20071;-69
2022/01/02 09:32:34;;;;;;;3.33;1.58;;;21.90;48.60;;;;;;5079188;28;20056;-69
2022/01/02 09:35:19;;;;;;;2.17;1.42;;;21.90;49.40;;;;;;5078970;28;20052;-69
2022/01/02 09:38:04;;;;;;;2.78;1.38;;;21.90;50.50;;;;;;5087780;28;20100;-69
2022/01/02 09:40:49;;;;;;;2.38;1.40;;;22.00;46.80;;;;;;5084437;28;20044;-70
2022/01/02 09:43:36;;;;;;;2.47;1.65;;;22.00;51.10;;;;;;5078948;28;20036;-71
2022/01/02 09:46:25;;;;;;;2.67;1.15;;;22.00;51.40;;;;;;5087855;28;20074;-70
2022/01/02 09:49:11;;;;;;;1.48;1.13;;;22.00;51.80;;;;;;5098882;28;20031;-69
2022/01/02 09:51:55;;;;;;;1.65;1.20;;;22.00;49.80;;;;;;5098018;28;20039;-70
2022/01/02 09:54:42;;;;;;;1.60;1.20;;;22.10;52.40;;;;;;5097417;28;20035;-70
2022/01/02 09:57:09;;;;;;;1.33;0.88;;;22.10;52.30;;;;;;5096389;28;20044;-70
2022/01/02 09:59:35;;;;;;;0.65;0.65;;;22.20;45.00;;;;;;5095565;28;20048;-70
2022/01/02 10:02:01;;;;;;;0.98;0.80;;;22.30;39.50;;;;;;5088357;28;20049;-72
2022/01/02 10:04:43;;;;;;;0.75;0.63;;;22.50;37.60;;;;;;5089218;28;20048;-71
2022/01/02 10:07:34;;;;;;;2.78;1.25;;;22.70;38.10;;;;;;5087390;28;20045;-72
2022/01/02 10:10:11;;;;;;;1.67;1.23;;;22.80;39.40;;;;;;5087551;28;20037;-72
2022/01/02 10:12:37;;;;;;;1.15;0.85;;;22.90;36.00;;;;;;5095307;28;20048;-70
2022/01/02 10:15:14;;;;;;;0.60;0.60;;;22.80;38.30;;;;;;5094127;28;20083;-71
2022/01/02 10:18:10;;;;;;;2.65;1.10;;;23.00;38.40;;;;;;5083163;28;20045;-72
2022/01/02 10:20:45;;;;;;;2.20;0.95;;;23.00;37.40;;;;;;5087706;28;20067;-71
2022/01/02 10:23:25;;;;;;;3.95;1.00;;;23.00;38.00;;;;;;5085029;28;20045;-70
2022/01/02 10:26:00;;;;;;;0.85;0.80;;;23.10;36.50;;;;;;5088483;28;20067;-71
2022/01/02 10:28:29;;;;;;;1.95;0.82;;;23.00;36.70;;;;;;5096979;28;20037;-70
2022/01/02 10:30:58;;;;;;;1.50;1.13;;;23.00;37.30;;;;;;5092527;28;20041;-71
2022/01/02 10:33:26;;;;;;;1.50;1.38;;;23.00;38.70;;;;;;5095765;28;20043;-71
2022/01/02 10:36:00;;;;;;;1.25;1.02;;;23.00;38.10;;;;;;5092540;28;20056;-71
2022/01/02 10:38:26;;;;;;;2.53;0.90;;;23.00;38.20;;;;;;5084185;28;20047;-71
2022/01/02 10:40:52;;;;;;;3.30;1.05;;;23.00;38.50;;;;;;5090726;28;20040;-73
2022/01/02 10:43:26;;;;;;;2.15;1.08;;;23.00;39.00;;;;;;5093075;28;20092;-71
2022/01/02 10:45:55;;;;;;;1.40;1.25;;;23.00;38.60;;;;;;5095919;28;20059;-71
2022/01/02 10:48:37;;;;;;;2.40;1.30;;;23.10;38.50;;;;;;5096677;28;20050;-71
2022/01/02 10:51:15;;;;;;;2.10;1.30;;;23.00;43.00;;;;;;5095660;28;20620;-74
2022/01/02 10:53:59;;;;;;;2.10;1.52;;;23.00;36.30;;;;;;5091798;28;20029;-70
2022/01/02 10:56:30;;;;;;;1.20;0.90;;;22.90;35.20;;;;;;5097009;28;20040;-73
2022/01/02 10:58:59;;;;;;;0.80;0.80;;;22.90;34.80;;;;;;5096363;28;20076;-73
2022/01/02 11:01:26;;;;;;;2.63;1.50;;;23.00;36.60;;;;;;5091994;28;20036;-72
2022/01/02 11:03:54;;;;;;;2.63;1.52;;;22.90;36.90;;;;;;5096564;28;20043;-70
2022/01/02 11:06:29;;;;;;;1.27;1.00;;;23.00;35.90;;;;;;5088775;28;20036;-71
2022/01/02 11:08:58;;;;;;;1.80;1.10;;;23.00;35.80;;;;;;5096694;28;20052;-72
2022/01/02 11:11:24;;;;;;;1.35;1.17;;;23.00;36.20;;;;;;5096610;28;20086;-70
2022/01/02 11:13:51;;;;;;;4.78;1.92;;;22.90;36.10;;;;;;5096076;28;20021;-71
2022/01/02 11:16:17;;;;;;;1.75;1.33;;;22.90;36.80;;;;;;5095828;28;20043;-70
2022/01/02 11:18:46;;;;;;;3.60;1.20;;;22.90;40.20;;;;;;5093841;28;20068;-70
2022/01/02 11:21:12;;;;;;;2.70;1.92;;;22.90;39.10;;;;;;5094273;28;20096;-72
2022/01/02 11:24:01;;;;;;;2.83;1.70;;;23.10;39.30;;;;;;5096725;28;20040;-73
2022/01/02 11:26:46;;;;;;;3.17;1.75;;;23.00;36.90;;;;;;5079694;28;20053;-72
2022/01/02 11:29:12;;;;;;;2.53;1.48;;;23.00;37.10;;;;;;5095989;28;20037;-70
2022/01/02 11:31:48;;;;;;;2.58;1.70;;;23.00;38.60;;;;;;5090791;28;20040;-71
2022/01/02 11:34:22;;;;;;;2.55;1.85;;;22.90;39.80;;;;;;5094765;28;20052;-71
2022/01/02 11:36:48;;;;;;;2.33;1.75;;;23.10;50.50;;;;;;5080109;28;20041;-71
2022/01/02 11:39:15;;;;;;;6.30;1.73;;;23.60;49.80;;;;;;5096246;28;20064;-71
2022/01/02 11:41:52;;;;;;;1.55;1.25;;;23.90;49.20;;;;;;5096726;28;20043;-71
2022/01/02 11:44:56;;;;;;;2.47;1.90;;;24.00;49.00;;;;;;5092988;28;20041;-71
2022/01/02 11:47:46;;;;;;;2.35;1.65;;;24.00;49.00;;;;;;5090208;28;20045;-71
2022/01/02 11:50:31;;;;;;;3.17;2.20;;;24.00;49.20;;;;;;5089065;28;20040;-71
2022/01/02 11:53:09;;;;;;;2.03;1.70;;;23.90;49.70;;;;;;5081363;28;20075;-71
2022/01/02 11:55:35;;;;;;;2.33;1.92;;;23.80;50.60;;;;;;5092722;28;20052;-72
2022/01/02 11:58:02;;;;;;;3.70;2.05;;;23.80;51.40;;;;;;5081286;28;20095;-71
2022/01/02 12:00:43;;;;;;;2.60;1.98;;;23.70;52.70;;;;;;5089372;28;20048;-71
2022/01/02 12:03:38;;;;;;;2.85;2.13;;;23.60;52.90;;;;;;5086547;28;20043;-71
2022/01/02 12:06:22;;;;;;;2.15;1.70;;;23.60;52.80;;;;;;5076885;28;20055;-71
2022/01/02 12:08:49;;;;;;;2.00;1.80;;;23.50;53.20;;;;;;5077413;28;20053;-72
2022/01/02 12:11:38;;;;;;;2.53;2.30;;;23.50;53.10;;;;;;5089841;28;20040;-71
2022/01/02 12:14:18;;;;;;;2.00;1.80;;;23.50;53.00;;;;;;5096045;28;20048;-71
2022/01/02 12:16:52;;;;;;;3.25;2.03;;;23.60;53.00;;;;;;5095538;28;20036;-70
2022/01/02 12:19:18;;;;;;;3.58;1.98;;;23.50;52.60;;;;;;5095481;28;20730;-71
2022/01/02 12:22:14;;;;;;;2.30;1.70;;;23.60;52.70;;;;;;5091741;28;20049;-70
2022/01/02 12:24:41;;;;;;;3.03;1.42;;;23.50;53.00;;;;;;5095424;28;20052;-69
2022/01/02 12:27:10;;;;;;;3.15;1.73;;;23.60;53.10;;;;;;5095776;28;20041;-70
2022/01/02 12:29:36;;;;;;;6.20;1.90;;;23.70;53.10;;;;;;5095407;28;20041;-70
2022/01/02 12:32:04;;;;;;;2.47;1.90;;;23.60;52.90;;;;;;5095033;28;20043;-69
2022/01/02 12:34:32;;;;;;;4.15;2.25;;;23.60;53.10;;;;;;5095293;28;20112;-70
2022/01/02 12:36:59;;;;;;;3.97;2.28;;;23.70;55.70;;;;;;5091787;28;20052;-70
2022/01/02 12:39:33;;;;;;;2.67;2.22;;;23.60;56.00;;;;;;5094578;28;20040;-69
2022/01/02 12:42:03;;;;;;;5.05;1.92;;;23.60;54.90;;;;;;5094683;28;20040;-69
2022/01/02 12:44:32;;;;;;;3.15;2.45;;;23.50;54.70;;;;;;5089192;28;20041;-69
2022/01/02 12:47:01;;;;;;;3.20;2.33;;;23.50;54.40;;;;;;5094896;28;20033;-69
2022/01/02 12:49:33;;;;;;;3.22;2.28;;;23.50;54.30;;;;;;5093895;28;20036;-69
2022/01/02 12:52:10;;;;;;;3.85;2.17;;;23.50;54.10;;;;;;5077435;28;20041;-69
2022/01/02 12:54:45;;;;;;;2.65;1.85;;;23.40;54.10;;;;;;5091072;28;20072;-69
2022/01/02 12:57:16;;;;;;;2.08;1.88;;;23.20;54.20;;;;;;5088379;28;20055;-69
2022/01/02 12:59:42;;;;;;;3.92;2.05;;;23.20;54.40;;;;;;5095299;28;20100;-70
2022/01/02 13:02:11;;;;;;;2.67;2.08;;;23.10;54.40;;;;;;5093714;28;20123;-68
2022/01/02 13:04:44;;;;;;;3.72;2.00;;;23.00;54.50;;;;;;5093293;28;20090;-69
2022/01/02 13:07:12;;;;;;;2.78;2.00;;;23.10;54.70;;;;;;5075640;28;20048;-69
2022/01/02 13:09:49;;;;;;;2.22;1.75;;;23.10;54.50;;;;;;5085098;28;20067;-69
2022/01/02 13:12:23;;;;;;;2.08;1.90;;;23.00;54.40;;;;;;5095245;28;20052;-69
2022/01/02 13:14:56;;;;;;;3.42;2.08;;;23.00;54.50;;;;;;5095683;28;20061;-69
2022/01/02 13:17:27;;;;;;;7.70;2.30;;;22.80;54.70;;;;;;5095345;28;20045;-69
2022/01/02 13:20:05;;;;;;;2.28;1.63;;;22.80;54.80;;;;;;5093836;28;20049;-69
2022/01/02 13:22:33;;;;;;;2.75;2.08;;;22.80;55.10;;;;;;5094905;28;20770;-69
2022/01/02 13:25:13;;;;;;;3.72;1.80;;;22.80;55.10;;;;;;5094712;28;20066;-69
2022/01/02 13:27:48;;;;;;;5.72;2.10;;;22.80;55.10;;;;;;5095455;28;20041;-69
2022/01/02 13:30:21;;;;;;;2.75;2.15;;;22.70;55.30;;;;;;5094749;28;20036;-69
2022/01/02 13:32:47;;;;;;;3.67;2.08;;;22.70;55.30;;;;;;5094638;28;20041;-69
2022/01/02 13:35:17;;;;;;;2.95;1.90;;;22.70;55.40;;;;;;5087444;28;20109;-69
2022/01/02 13:37:46;;;;;;;4.35;2.03;;;22.70;55.50;;;;;;5093213;28;20045;-69
2022/01/02 13:40:22;;;;;;;2.20;2.00;;;22.70;55.60;;;;;;5094923;28;21728;-69
2022/01/02 13:42:52;;;;;;;5.80;2.20;;;22.60;55.50;;;;;;5094149;28;20108;-70
2022/01/02 13:45:29;;;;;;;2.67;2.17;;;22.60;55.60;;;;;;5090122;28;20049;-69
2022/01/02 13:47:56;;;;;;;5.15;2.35;;;22.70;55.80;;;;;;5094516;28;20044;-69
2022/01/02 13:50:35;;;;;;;4.00;2.30;;;22.50;55.70;;;;;;5082457;28;20052;-69
2022/01/02 13:53:22;;;;;;;4.18;2.85;;;22.50;55.90;;;;;;5093609;28;20122;-69
2022/01/02 13:55:54;;;;;;;3.88;2.65;;;22.40;55.90;;;;;;5097369;28;20036;-69
2022/01/02 13:58:20;;;;;;;5.72;3.10;;;22.50;56.10;;;;;;5086560;28;20105;-69
2022/01/02 14:00:53;;;;;;;5.68;3.22;;;22.50;56.10;;;;;;5095079;28;20052;-69
2022/01/02 14:03:39;;;;;;;7.10;4.30;;;22.40;56.20;;;;;;5097491;28;20039;-70
2022/01/02 14:06:06;;;;;;;8.07;4.47;;;22.40;56.00;;;;;;5081789;28;20055;-69
2022/01/02 14:08:44;;;;;;;10.32;6.13;;;22.20;56.10;;;;;;5095219;28;20070;-69
2022/01/02 14:11:10;;;;;;;12.73;7.80;;;22.30;56.80;;;;;;5096427;28;20051;-69